Time;durP1;ratioP1;P1;durP2;ratioP2;P2;SDS_P1;SDS_P2;PMS_P1;PMS_P2;Temp;Humidity;BMP_temperature;BMP_pressure;BME280_temperature;BME280_humidity;BME280_pressure;Samples;Min_cycle;Max_cycle;Signal;HPM_P1;HPM_P2
2021/12/14 00:00:43;;;;;;;22.50;14.80;;;9.10;99.90;;;;;;6219911;23;20441;-80
2021/12/14 00:03:09;;;;;;;20.25;14.80;;;;;;;;;;6219863;23;20372;-79
2021/12/14 00:05:36;;;;;;;20.75;14.15;;;;;;;;;;6171354;23;20372;-79
2021/12/14 00:08:03;;;;;;;21.88;15.38;;;;;;;;;;6193740;23;20566;-79
2021/12/14 00:13:19;;;;;;;19.75;13.90;;;;;;;;;;6218237;23;20371;-79
2021/12/14 00:15:45;;;;;;;19.40;13.97;;;;;;;;;;6220330;23;20861;-79
2021/12/14 00:18:13;;;;;;;20.80;14.68;;;;;;;;;;6219675;23;20414;-79
2021/12/14 00:20:48;;;;;;;22.00;14.95;;;;;;;;;;6223362;23;20400;-78
2021/12/14 00:25:47;;;;;;;21.10;15.13;;;;;;;;;;6249806;23;20449;-79
2021/12/14 00:28:25;;;;;;;21.25;14.93;;;;;;;;;;6224954;23;20452;-79
2021/12/14 00:30:52;;;;;;;20.48;15.02;;;9.10;99.90;;;;;;6200796;23;20381;-78
2021/12/14 00:33:23;;;;;;;23.43;15.00;;;;;;;;;;6173915;23;20385;-79
2021/12/14 00:35:50;;;;;;;21.02;15.02;;;;;;;;;;6199548;23;20381;-79
2021/12/14 00:38:17;;;;;;;18.67;14.30;;;;;;;;;;6197986;23;20437;-79
2021/12/14 00:40:47;;;;;;;20.63;15.15;;;;;;;;;;6201208;23;20398;-79
2021/12/14 00:43:13;;;;;;;20.48;15.00;;;;;;;;;;6223679;23;20393;-78
2021/12/14 00:45:41;;;;;;;21.27;14.85;;;;;;;;;;6225640;23;20392;-79
2021/12/14 00:48:08;;;;;;;19.27;14.77;;;;;;;;;;6225218;23;20378;-78
2021/12/14 00:50:34;;;;;;;20.85;15.05;;;;;;;;;;6224355;23;20381;-79
2021/12/14 00:53:00;;;;;;;20.08;15.48;;;;;;;;;;6202505;23;20370;-79
2021/12/14 00:55:30;;;;;;;22.30;15.43;;;;;;;;;;6197776;23;20416;-79
2021/12/14 00:57:56;;;;;;;23.48;15.63;;;;;;;;;;6226273;23;20756;-79
2021/12/14 01:00:29;;;;;;;19.67;15.20;;;;;;;;;;6224477;23;20741;-78
2021/12/14 01:02:55;;;;;;;24.93;16.13;;;;;;;;;;6226219;23;20454;-79
2021/12/14 01:05:26;;;;;;;22.70;16.38;;;;;;;;;;6225473;23;20381;-79
2021/12/14 01:07:52;;;;;;;22.50;16.65;;;;;;;;;;6197596;23;20397;-79
2021/12/14 01:10:27;;;;;;;22.50;16.48;;;8.90;99.90;;;;;;6225289;23;20366;-78
2021/12/14 01:12:57;;;;;;;22.45;16.80;;;;;;;;;;6223725;23;20382;-79
2021/12/14 01:15:49;;;;;;;21.17;16.02;;;;;;;;;;6200219;23;20366;-79
2021/12/14 01:20:59;;;;;;;24.93;16.77;;;;;;;;;;6223592;23;20910;-78
2021/12/14 01:23:31;;;;;;;22.25;16.27;;;;;;;;;;6200970;23;20381;-79
2021/12/14 01:26:03;;;;;;;20.67;15.77;;;8.60;99.90;;;;;;6199177;23;20448;-79
2021/12/14 01:28:29;;;;;;;21.83;16.33;;;;;;;;;;6226347;23;20381;-79
2021/12/14 01:31:08;;;;;;;24.27;17.33;;;;;;;;;;6200091;23;20374;-78
2021/12/14 01:33:36;;;;;;;20.88;16.45;;;;;;;;;;6200129;23;20398;-79
2021/12/14 01:36:09;;;;;;;21.73;16.50;;;;;;;;;;6202320;23;20362;-78
2021/12/14 01:38:46;;;;;;;23.40;16.83;;;;;;;;;;6224646;23;20456;-79
2021/12/14 01:41:13;;;;;;;24.33;17.15;;;;;;;;;;6225728;23;20398;-79
2021/12/14 01:43:42;;;;;;;23.00;17.73;;;;;;;;;;6201404;23;20408;-78
2021/12/14 01:46:15;;;;;;;23.48;17.67;;;;;;;;;;6201038;23;20373;-80
2021/12/14 01:48:41;;;;;;;24.42;17.92;;;8.90;99.90;;;;;;6226841;23;20377;-79
2021/12/14 01:51:08;;;;;;;24.95;18.17;;;;;;;;;;6225419;23;20372;-79
2021/12/14 01:53:35;;;;;;;23.58;18.00;;;;;;;;;;6201732;23;20373;-79
2021/12/14 01:56:03;;;;;;;24.63;18.43;;;;;;;;;;6197269;23;20374;-79
2021/12/14 01:58:38;;;;;;;25.00;19.17;;;;;;;;;;6201491;23;20446;-78
2021/12/14 02:01:07;;;;;;;26.35;19.33;;;;;;;;;;6226016;23;20901;-79
2021/12/14 02:03:35;;;;;;;24.33;18.90;;;;;;;;;;6198841;23;20366;-79
2021/12/14 02:06:01;;;;;;;24.00;18.33;;;;;;;;;;6226589;23;20370;-79
2021/12/14 02:08:29;;;;;;;24.30;18.75;;;;;;;;;;6225016;23;20370;-80
2021/12/14 02:10:57;;;;;;;28.23;18.67;;;;;;;;;;6226702;23;20374;-79
2021/12/14 02:13:28;;;;;;;26.17;19.40;;;;;;;;;;6225742;23;20380;-79
2021/12/14 02:15:54;;;;;;;25.20;19.30;;;;;;;;;;6225542;23;20378;-79
2021/12/14 02:18:23;;;;;;;25.10;19.77;;;;;;;;;;6201686;23;20453;-79
2021/12/14 02:20:53;;;;;;;25.73;19.50;;;;;;;;;;6221764;23;20431;-80
2021/12/14 02:23:20;;;;;;;26.20;20.35;;;;;;;;;;6224666;23;20366;-80
2021/12/14 02:25:47;;;;;;;26.67;19.88;;;;;;;;;;6223260;23;20840;-80
2021/12/14 02:28:17;;;;;;;27.75;20.17;;;;;;;;;;6225957;23;20382;-80
2021/12/14 02:30:43;;;;;;;28.58;19.70;;;;;;;;;;6198586;23;20439;-79
2021/12/14 02:33:14;;;;;;;30.20;20.77;;;;;;;;;;6199349;23;20412;-79
2021/12/14 02:35:41;;;;;;;27.30;20.65;;;;;;;;;;6225179;23;20402;-79
2021/12/14 02:38:11;;;;;;;28.55;20.90;;;;;;;;;;6198152;23;20366;-79
2021/12/14 02:40:56;;;;;;;26.30;20.42;;;;;;;;;;6225598;23;20394;-79
2021/12/14 02:43:31;;;;;;;28.75;20.83;;;;;;;;;;6223939;23;20374;-79
2021/12/14 02:46:07;;;;;;;28.98;21.05;;;;;;;;;;6222393;23;20628;-79
2021/12/14 02:48:33;;;;;;;28.70;21.13;;;;;;;;;;6225287;23;20393;-79
2021/12/14 02:51:11;;;;;;;27.60;20.95;;;;;;;;;;6197540;23;20370;-80
2021/12/14 02:53:37;;;;;;;27.38;20.85;;;;;;;;;;6224521;23;20382;-79
2021/12/14 02:56:08;;;;;;;29.10;22.23;;;;;;;;;;6197173;23;20366;-79
2021/12/14 02:58:34;;;;;;;30.58;21.85;;;;;;;;;;6199695;23;20441;-79
2021/12/14 03:01:01;;;;;;;29.20;22.73;;;;;;;;;;6199365;23;20401;-79
2021/12/14 03:03:27;;;;;;;31.05;23.05;;;;;;;;;;6198167;23;20449;-79
2021/12/14 03:05:54;;;;;;;31.30;23.13;;;;;;;;;;6224954;23;20370;-80
2021/12/14 03:08:22;;;;;;;30.45;23.10;;;;;;;;;;6198002;23;20389;-80
2021/12/14 03:10:58;;;;;;;31.63;23.50;;;;;;;;;;6224717;23;20506;-80
2021/12/14 03:13:26;;;;;;;31.80;23.27;;;;;;;;;;6225745;23;20771;-79
2021/12/14 03:15:54;;;;;;;32.73;23.90;;;;;;;;;;6227628;23;20396;-79
2021/12/14 03:18:26;;;;;;;32.35;23.08;;;;;;;;;;6224084;23;20496;-79
2021/12/14 03:20:55;;;;;;;32.03;23.50;;;;;;;;;;6222527;23;20401;-79
2021/12/14 03:23:27;;;;;;;33.77;24.63;;;;;;;;;;6222451;23;20496;-79
2021/12/14 03:25:55;;;;;;;32.57;24.20;;;;;;;;;;6222157;23;20370;-80
2021/12/14 03:28:23;;;;;;;36.38;25.45;;;;;;;;;;6224417;23;20370;-80
2021/12/14 03:30:59;;;;;;;33.83;24.85;;;;;;;;;;6197093;23;20377;-79
2021/12/14 03:33:27;;;;;;;33.03;24.40;;;;;;;;;;6198118;23;20401;-80
2021/12/14 03:35:56;;;;;;;35.75;25.40;;;;;;;;;;6224716;23;20859;-80
2021/12/14 03:38:34;;;;;;;35.03;24.70;;;9.00;99.90;;;;;;6196875;23;20385;-79
2021/12/14 03:41:06;;;;;;;34.78;25.13;;;;;;;;;;6224531;23;20414;-78
2021/12/14 03:43:33;;;;;;;33.50;24.80;;;;;;;;;;6223440;23;20381;-79
2021/12/14 03:45:59;;;;;;;34.90;25.02;;;;;;;;;;6223067;23;20474;-80
2021/12/14 03:48:27;;;;;;;33.95;25.00;;;;;;;;;;6223750;23;20377;-80
2021/12/14 03:50:53;;;;;;;35.42;25.50;;;;;;;;;;6198300;23;20370;-79
2021/12/14 03:53:21;;;;;;;36.20;24.63;;;;;;;;;;6199053;23;20362;-80
2021/12/14 03:55:58;;;;;;;36.05;25.65;;;;;;;;;;6223089;23;20373;-80
2021/12/14 03:58:27;;;;;;;35.80;26.10;;;;;;;;;;6224253;23;20385;-80
2021/12/14 04:00:56;;;;;;;35.30;25.13;;;;;;;;;;6222602;23;20457;-80
2021/12/14 04:03:24;;;;;;;34.53;25.10;;;;;;;;;;6222478;23;20370;-80
2021/12/14 04:05:50;;;;;;;34.67;25.23;;;;;;;;;;6199199;23;20377;-79
2021/12/14 04:08:17;;;;;;;34.92;25.10;;;;;;;;;;6197941;23;20379;-80
2021/12/14 04:10:46;;;;;;;35.75;25.73;;;8.90;99.90;;;;;;6174862;23;20405;-80
2021/12/14 04:13:20;;;;;;;36.17;25.73;;;;;;;;;;6197855;23;20401;-80
2021/12/14 04:15:46;;;;;;;36.55;26.33;;;;;;;;;;6196855;23;20381;-80
2021/12/14 04:18:12;;;;;;;36.23;26.00;;;;;;;;;;6223863;23;20405;-80
2021/12/14 04:20:40;;;;;;;34.55;25.70;;;;;;;;;;6221880;23;20459;-80
2021/12/14 04:23:11;;;;;;;35.90;26.55;;;;;;;;;;6199363;23;20433;-80
2021/12/14 04:25:40;;;;;;;36.15;26.38;;;;;;;;;;6222158;23;20381;-80
2021/12/14 04:28:07;;;;;;;38.05;26.55;;;;;;;;;;6198821;23;20366;-80
2021/12/14 04:30:34;;;;;;;36.65;25.33;;;;;;;;;;6222662;23;20377;-80
2021/12/14 04:33:01;;;;;;;37.80;26.40;;;;;;;;;;6223778;23;20373;-80
2021/12/14 04:35:31;;;;;;;36.58;26.75;;;;;;;;;;6223374;23;20370;-79
2021/12/14 04:37:59;;;;;;;35.95;25.60;;;;;;;;;;6222439;23;20378;-79
2021/12/14 04:54:08;;;;;;;38.80;27.15;;;;;;;;;;6223756;23;20370;-79
2021/12/14 04:56:37;;;;;;;37.13;26.88;;;;;;;;;;6198514;23;20366;-80
2021/12/14 04:59:12;;;;;;;37.47;27.08;;;;;;;;;;6197792;23;20370;-79
2021/12/14 05:01:40;;;;;;;42.05;28.58;;;;;;;;;;6199531;23;20400;-80
2021/12/14 05:04:09;;;;;;;41.42;29.10;;;;;;;;;;6197449;23;20482;-80
2021/12/14 05:06:49;;;;;;;42.53;30.20;;;;;;;;;;6224617;23;20377;-79
2021/12/14 05:09:21;;;;;;;40.88;28.67;;;;;;;;;;6225309;23;20429;-79
2021/12/14 05:11:53;;;;;;;42.83;29.02;;;;;;;;;;6224648;23;20392;-80
2021/12/14 05:14:20;;;;;;;44.25;29.48;;;;;;;;;;6225283;23;20389;-80
2021/12/14 05:16:46;;;;;;;41.42;29.67;;;;;;;;;;6199339;23;20440;-79
2021/12/14 05:19:13;;;;;;;45.55;30.30;;;;;;;;;;6224348;23;20377;-79
2021/12/14 05:21:47;;;;;;;44.53;30.55;;;;;;;;;;6199194;23;20398;-80
2021/12/14 05:24:16;;;;;;;45.20;30.40;;;;;;;;;;6224721;23;20885;-79
2021/12/14 05:26:43;;;;;;;42.92;30.25;;;;;;;;;;6224675;23;20410;-79
2021/12/14 05:29:10;;;;;;;43.95;31.23;;;;;;;;;;6224461;23;20390;-79
2021/12/14 05:31:43;;;;;;;45.72;31.33;;;;;;;;;;6225847;23;20377;-79
2021/12/14 05:34:10;;;;;;;46.13;31.48;;;;;;;;;;6224134;23;20374;-80
2021/12/14 05:36:36;;;;;;;48.72;31.98;;;;;;;;;;6227131;23;20367;-80
2021/12/14 05:39:51;;;;;;;48.25;33.40;;;;;;;;;;6177736;23;20657;-80
2021/12/14 05:44:36;;;;;;;50.28;34.35;;;;;;;;;;6226756;23;20429;-77
2021/12/14 05:47:05;;;;;;;52.70;34.65;;;;;;;;;;6224652;23;20378;-80
2021/12/14 05:49:31;;;;;;;56.97;37.95;;;;;;;;;;6199255;23;20374;-80
2021/12/14 05:52:00;;;;;;;57.88;37.28;;;8.60;99.90;;;;;;6223977;23;20689;-81
2021/12/14 05:54:30;;;;;;;54.80;36.47;;;;;;;;;;6224416;23;20388;-81
2021/12/14 05:56:58;;;;;;;59.88;38.08;;;;;;;;;;6225066;23;20393;-80
2021/12/14 05:59:27;;;;;;;69.15;40.13;;;;;;;;;;6222581;23;20393;-80
2021/12/14 06:01:53;;;;;;;59.20;37.13;;;;;;;;;;6198383;23;20457;-79
2021/12/14 06:04:19;;;;;;;62.83;39.08;;;;;;;;;;6223663;23;20394;-81
2021/12/14 06:06:52;;;;;;;62.85;39.88;;;;;;;;;;6224092;23;20370;-81
2021/12/14 06:09:24;;;;;;;65.17;40.57;;;;;;;;;;6224453;23;20407;-81
2021/12/14 06:11:53;;;;;;;64.57;40.03;;;;;;;;;;6196307;23;20473;-81
2021/12/14 06:14:24;;;;;;;61.08;38.83;;;;;;;;;;6223454;23;20437;-82
2021/12/14 06:16:53;;;;;;;61.38;39.58;;;;;;;;;;6198165;23;20390;-82
2021/12/14 06:19:24;;;;;;;74.95;43.05;;;;;;;;;;6199365;23;20382;-83
2021/12/14 06:22:18;;;;;;;72.18;42.58;;;8.80;99.90;;;;;;6198217;23;20424;-82
2021/12/14 06:24:46;;;;;;;86.63;46.22;;;;;;;;;;6217389;23;20420;-82
2021/12/14 06:27:14;;;;;;;83.05;45.70;;;;;;;;;;6199358;23;20424;-82
2021/12/14 06:29:40;;;;;;;115.13;51.65;;;;;;;;;;6198223;23;20963;-82
2021/12/14 06:32:11;;;;;;;120.82;51.75;;;;;;;;;;6223296;23;20385;-81
2021/12/14 06:34:42;;;;;;;94.55;47.88;;;;;;;;;;6222876;23;20382;-82
2021/12/14 06:37:29;;;;;;;95.93;48.25;;;;;;;;;;6223144;23;20453;-81
2021/12/14 06:40:01;;;;;;;110.60;52.90;;;;;;;;;;6199274;23;20389;-82
2021/12/14 06:42:28;;;;;;;87.80;48.10;;;;;;;;;;6222145;23;20377;-80
2021/12/14 06:45:05;;;;;;;89.47;48.73;;;;;;;;;;6197442;23;20405;-81
2021/12/14 06:47:31;;;;;;;158.02;57.50;;;;;;;;;;6194536;23;20418;-82
2021/12/14 06:49:59;;;;;;;98.75;49.63;;;;;;;;;;6198031;23;20369;-82
2021/12/14 06:52:26;;;;;;;92.00;48.08;;;;;;;;;;6223493;23;20374;-82
2021/12/14 06:54:52;;;;;;;105.20;52.20;;;;;;;;;;6223336;23;20433;-82
2021/12/14 06:57:18;;;;;;;91.03;48.25;;;;;;;;;;6199964;23;20373;-82
2021/12/14 06:59:44;;;;;;;165.65;55.25;;;;;;;;;;6223138;23;20429;-84
2021/12/14 07:02:12;;;;;;;124.28;53.42;;;8.50;99.90;;;;;;6224835;23;20386;-82
2021/12/14 07:04:42;;;;;;;93.18;48.55;;;;;;;;;;6196262;23;20370;-82
2021/12/14 07:07:10;;;;;;;101.88;50.30;;;;;;;;;;6220867;23;20378;-83
2021/12/14 07:09:39;;;;;;;119.70;53.88;;;;;;;;;;6222495;23;20369;-83
2021/12/14 07:12:10;;;;;;;106.95;51.17;;;;;;;;;;6222719;23;20371;-83
2021/12/14 07:14:39;;;;;;;104.93;51.22;;;;;;;;;;6200181;23;20377;-82
2021/12/14 07:17:11;;;;;;;107.00;50.55;;;;;;;;;;6197507;23;20390;-83
2021/12/14 07:19:44;;;;;;;97.53;50.33;;;;;;;;;;6225782;23;20389;-84
2021/12/14 07:22:27;;;;;;;101.77;51.43;;;;;;;;;;6201442;23;20492;-82
2021/12/14 07:25:14;;;;;;;100.85;50.80;;;;;;;;;;6223951;23;20886;-83
2021/12/14 07:27:47;;;;;;;91.30;48.85;;;;;;;;;;6200698;23;20370;-83
2021/12/14 07:30:19;;;;;;;92.63;48.87;;;;;;;;;;6199233;23;20855;-83
2021/12/14 07:32:52;;;;;;;96.73;49.80;;;;;;;;;;6226508;23;20489;-83
2021/12/14 07:35:18;;;;;;;94.68;48.83;;;;;;;;;;6201366;23;20455;-83
2021/12/14 07:37:45;;;;;;;87.22;47.33;;;;;;;;;;6225896;23;20444;-83
2021/12/14 07:40:13;;;;;;;87.20;48.13;;;8.40;99.90;;;;;;6225677;23;20394;-83
2021/12/14 07:42:39;;;;;;;88.97;47.35;;;;;;;;;;6173981;23;20366;-83
2021/12/14 07:45:06;;;;;;;93.38;47.63;;;;;;;;;;6226237;23;20439;-84
2021/12/14 07:47:33;;;;;;;91.95;47.13;;;;;;;;;;6225862;23;20388;-83
2021/12/14 07:49:59;;;;;;;88.70;48.08;;;;;;;;;;6200765;23;20369;-84
2021/12/14 07:52:25;;;;;;;92.68;48.78;;;;;;;;;;6202409;23;20401;-84
2021/12/14 07:54:53;;;;;;;89.45;47.83;;;;;;;;;;6224186;23;20390;-84
2021/12/14 07:57:24;;;;;;;92.43;48.53;;;;;;;;;;6201984;23;20385;-84
2021/12/14 07:59:53;;;;;;;91.78;48.10;;;;;;;;;;6198086;23;20392;-85
2021/12/14 08:02:20;;;;;;;93.80;48.08;;;;;;;;;;6199380;23;20404;-85
2021/12/14 08:04:51;;;;;;;90.30;48.47;;;;;;;;;;6199784;23;20445;-85
2021/12/14 08:07:23;;;;;;;105.57;49.70;;;;;;;;;;6201346;23;20377;-85
2021/12/14 08:09:51;;;;;;;104.93;50.57;;;;;;;;;;6201422;23;20377;-85
2021/12/14 08:12:36;;;;;;;100.13;51.05;;;;;;;;;;6228926;23;20381;-85
2021/12/14 08:15:07;;;;;;;107.45;52.08;;;;;;;;;;6232735;23;20698;-86
2021/12/14 08:17:33;;;;;;;109.37;52.00;;;;;;;;;;6231086;23;20381;-84
2021/12/14 08:19:59;;;;;;;109.97;50.88;;;;;;;;;;6202519;23;20710;-85
2021/12/14 08:22:31;;;;;;;102.73;50.57;;;;;;;;;;6201866;23;20895;-85
2021/12/14 08:24:58;;;;;;;104.22;50.38;;;;;;;;;;6201522;23;20378;-89
2021/12/14 08:27:25;;;;;;;111.80;52.95;;;;;;;;;;6202672;23;20390;-85
2021/12/14 08:29:53;;;;;;;109.20;52.63;;;;;;;;;;6226849;23;20385;-85
2021/12/14 08:32:21;;;;;;;105.07;49.85;;;;;;;;;;6228962;23;20476;-86
2021/12/14 08:34:49;;;;;;;103.85;49.95;;;;;;;;;;6201546;23;20366;-85
2021/12/14 08:37:18;;;;;;;96.63;48.28;;;;;;;;;;6228122;23;20370;-85
2021/12/14 08:39:44;;;;;;;95.45;47.10;;;;;;;;;;6203837;23;20381;-84
2021/12/14 08:42:22;;;;;;;112.13;51.57;;;;;;;;;;6202278;23;20404;-83
2021/12/14 08:44:53;;;;;;;91.00;46.97;;;;;;;;;;6228899;23;20432;-85
2021/12/14 08:47:26;;;;;;;91.68;46.38;;;;;;;;;;6202215;23;20385;-83
2021/12/14 08:49:56;;;;;;;87.15;46.15;;;;;;;;;;6255577;23;20370;-85
2021/12/14 08:52:22;;;;;;;89.43;46.20;;;;;;;;;;6201368;23;20376;-85
2021/12/14 08:54:49;;;;;;;86.32;46.08;;;;;;;;;;6225379;23;20385;-85
2021/12/14 08:57:18;;;;;;;94.70;48.65;;;;;;;;;;6176190;23;20377;-84
2021/12/14 08:59:46;;;;;;;84.22;45.65;;;;;;;;;;6198804;23;20382;-84
2021/12/14 09:02:14;;;;;;;80.88;44.15;;;;;;;;;;6226242;23;20397;-85
2021/12/14 09:04:44;;;;;;;82.63;44.80;;;;;;;;;;6197757;23;20377;-84
2021/12/14 09:07:21;;;;;;;80.50;45.47;;;;;;;;;;6200772;23;20373;-84
2021/12/14 09:09:47;;;;;;;86.55;45.65;;;;;;;;;;6198444;23;20389;-82
2021/12/14 09:12:13;;;;;;;85.57;45.40;;;;;;;;;;6199659;23;20441;-84
2021/12/14 09:14:40;;;;;;;86.85;46.17;;;;;;;;;;6223997;23;20370;-85
2021/12/14 09:17:07;;;;;;;81.82;44.95;;;;;;;;;;6198873;23;20370;-83
2021/12/14 09:19:38;;;;;;;89.47;46.22;;;;;;;;;;6225442;23;20381;-83
2021/12/14 09:22:07;;;;;;;96.93;47.53;;;;;;;;;;6198503;23;20398;-84
2021/12/14 09:24:34;;;;;;;96.27;47.43;;;;;;;;;;6225112;23;20916;-83
2021/12/14 09:27:09;;;;;;;98.20;48.33;;;;;;;;;;6224693;23;20366;-85
2021/12/14 09:29:35;;;;;;;103.65;49.58;;;;;;;;;;6224433;23;20458;-85
2021/12/14 09:32:04;;;;;;;97.40;49.88;;;8.70;99.90;;;;;;6200190;23;20366;-82
2021/12/14 09:34:32;;;;;;;104.43;50.37;;;;;;;;;;6198369;23;20405;-83
2021/12/14 09:36:58;;;;;;;112.87;52.47;;;;;;;;;;6223467;23;20456;-82
2021/12/14 09:39:30;;;;;;;104.60;50.70;;;;;;;;;;6225049;23;20420;-84
2021/12/14 09:41:59;;;;;;;108.03;51.38;;;8.90;99.90;;;;;;6223455;23;20904;-83
2021/12/14 09:44:27;;;;;;;110.50;51.38;;;;;;;;;;6200419;23;20401;-81
2021/12/14 09:46:56;;;;;;;104.72;49.13;;;;;;;;;;6221365;23;20386;-81
2021/12/14 09:49:22;;;;;;;102.30;50.47;;;;;;;;;;6203201;23;20855;-81
2021/12/14 09:51:52;;;;;;;106.70;49.67;;;;;;;;;;6218736;23;20978;-82
2021/12/14 09:54:22;;;;;;;113.00;52.72;;;;;;;;;;6219203;23;20370;-82
2021/12/14 09:57:08;;;;;;;121.00;52.65;;;;;;;;;;6220971;23;20374;-82
2021/12/14 09:59:35;;;;;;;113.22;51.50;;;;;;;;;;6219282;23;20390;-81
2021/12/14 10:02:13;;;;;;;110.72;51.15;;;;;;;;;;6199164;23;20484;-81
2021/12/14 10:04:42;;;;;;;104.40;50.35;;;;;;;;;;6199477;23;20367;-81
2021/12/14 10:07:09;;;;;;;118.72;52.13;;;;;;;;;;6200403;23;20381;-80
2021/12/14 10:09:41;;;;;;;170.48;57.85;;;;;;;;;;6227173;23;20444;-80
2021/12/14 10:14:42;;;;;;;114.75;49.85;;;;;;;;;;6227767;23;20406;-81
2021/12/14 10:17:10;;;;;;;119.32;50.58;;;;;;;;;;6226593;23;20818;-81
2021/12/14 10:19:36;;;;;;;110.03;49.58;;;;;;;;;;6228502;23;20381;-81
2021/12/14 10:22:10;;;;;;;110.82;49.00;;;;;;;;;;6226859;23;20401;-80
2021/12/14 10:24:36;;;;;;;110.85;48.28;;;;;;;;;;6230683;23;20374;-81
2021/12/14 10:27:05;;;;;;;99.50;45.60;;;;;;;;;;6234675;23;20802;-81
2021/12/14 10:29:31;;;;;;;103.55;44.65;;;;;;;;;;6230138;23;20377;-81
2021/12/14 10:32:02;;;;;;;103.82;45.78;;;;;;;;;;6234057;23;20384;-81
2021/12/14 10:34:29;;;;;;;103.90;44.60;;;;;;;;;;6228670;23;20454;-81
2021/12/14 10:37:07;;;;;;;115.53;46.10;;;;;;;;;;6227836;23;20372;-81
2021/12/14 10:44:48;;;;;;;96.65;43.42;;;9.00;99.90;;;;;;6226058;23;20747;-83
2021/12/14 10:47:16;;;;;;;97.40;43.60;;;;;;;;;;6226360;23;20461;-82
2021/12/14 10:49:43;;;;;;;98.57;43.88;;;;;;;;;;6202742;23;20464;-82
2021/12/14 10:52:14;;;;;;;108.38;45.50;;;;;;;;;;6227270;23;20743;-82
2021/12/14 10:54:41;;;;;;;96.20;43.63;;;;;;;;;;6227036;23;20397;-82
2021/12/14 10:57:09;;;;;;;97.90;43.55;;;;;;;;;;6228200;23;20453;-81
2021/12/14 10:59:42;;;;;;;92.25;42.53;;;;;;;;;;6200114;23;20376;-82
2021/12/14 11:02:08;;;;;;;98.35;44.00;;;;;;;;;;6227408;23;20399;-83
2021/12/14 11:04:41;;;;;;;108.22;43.95;;;;;;;;;;6225346;23;20393;-82
2021/12/14 11:07:18;;;;;;;126.53;46.77;;;;;;;;;;6202309;23;20443;-82
2021/12/14 11:09:52;;;;;;;93.68;42.35;;;;;;;;;;6226980;23;20381;-83
2021/12/14 11:12:23;;;;;;;101.82;45.30;;;;;;;;;;6226463;23;20867;-82
2021/12/14 11:14:52;;;;;;;103.28;42.88;;;;;;;;;;6203018;23;20382;-81
2021/12/14 11:20:18;;;;;;;102.10;41.37;;;;;;;;;;6220389;23;20379;-81
2021/12/14 11:22:50;;;;;;;103.22;41.72;;;;;;;;;;6220287;23;20751;-79
2021/12/14 11:25:19;;;;;;;90.18;39.17;;;;;;;;;;6220576;23;20380;-80
2021/12/14 11:27:50;;;;;;;93.50;40.47;;;;;;;;;;6196430;23;20383;-81
2021/12/14 11:30:21;;;;;;;95.07;39.30;;;;;;;;;;6195336;23;20699;-79
2021/12/14 11:32:49;;;;;;;96.68;39.97;;;;;;;;;;6220036;23;20376;-80
2021/12/14 11:35:23;;;;;;;116.50;41.08;;;;;;;;;;6219550;23;20402;-79
2021/12/14 11:37:49;;;;;;;92.38;38.70;;;;;;;;;;6219590;23;20376;-79
2021/12/14 11:40:16;;;;;;;96.07;39.40;;;;;;;;;;6222274;23;20836;-80
2021/12/14 11:42:42;;;;;;;91.88;38.45;;;;;;;;;;6194007;23;20398;-79
2021/12/14 11:45:11;;;;;;;98.35;40.28;;;;;;;;;;6197509;23;20407;-79
2021/12/14 11:47:46;;;;;;;124.88;42.10;;;;;;;;;;6194215;23;20388;-79
2021/12/14 11:50:12;;;;;;;117.05;42.10;;;;;;;;;;6204669;23;20380;-80
2021/12/14 11:52:50;;;;;;;97.25;38.90;;;;;;;;;;6165182;23;20376;-79
2021/12/14 11:55:16;;;;;;;98.68;40.25;;;;;;;;;;6162434;23;20381;-79
2021/12/14 11:57:42;;;;;;;94.50;38.45;;;;;;;;;;6164717;23;20386;-80
2021/12/14 12:00:14;;;;;;;104.47;40.83;;;;;;;;;;6163320;23;21337;-80
2021/12/14 12:02:40;;;;;;;160.07;43.97;;;;;;;;;;6189687;23;20378;-79
2021/12/14 12:05:14;;;;;;;107.13;39.90;;;;;;;;;;6187190;23;20388;-79
2021/12/14 12:10:35;;;;;;;94.15;38.55;;;;;;;;;;6189011;23;20374;-77
2021/12/14 12:13:02;;;;;;;106.35;39.83;;;;;;;;;;6188821;23;20374;-79
2021/12/14 12:15:28;;;;;;;125.80;42.25;;;;;;;;;;6190930;23;20436;-79
2021/12/14 12:17:56;;;;;;;94.50;38.30;;;;;;;;;;6190280;23;20457;-79
2021/12/14 12:20:22;;;;;;;103.22;39.25;;;;;;;;;;6188619;23;20471;-78
2021/12/14 12:22:51;;;;;;;98.90;38.65;;;;;;;;;;6191330;23;20381;-79
2021/12/14 12:25:32;;;;;;;97.05;38.70;;;;;;;;;;6188280;23;20740;-80
2021/12/14 12:27:59;;;;;;;115.22;40.42;;;;;;;;;;6190952;23;20385;-79
2021/12/14 12:30:32;;;;;;;97.65;38.10;;;;;;;;;;6189503;23;20369;-79
2021/12/14 12:33:01;;;;;;;99.72;37.78;;;;;;;;;;6190840;23;20784;-80
2021/12/14 12:35:39;;;;;;;99.93;38.33;;;;;;;;;;6166115;23;20458;-79
2021/12/14 12:38:23;;;;;;;101.32;38.65;;;;;;;;;;6190914;23;20381;-80
2021/12/14 12:40:53;;;;;;;107.82;39.13;;;;;;;;;;6193637;23;20461;-81
2021/12/14 12:43:22;;;;;;;102.30;39.55;;;;;;;;;;6172887;23;20374;-78
2021/12/14 12:45:56;;;;;;;95.57;38.22;;;;;;;;;;6197924;23;20373;-80
2021/12/14 12:48:43;;;;;;;101.43;39.07;;;;;;;;;;6190820;23;20397;-80
2021/12/14 12:51:09;;;;;;;104.70;39.60;;;;;;;;;;6164713;23;20460;-80
2021/12/14 12:53:35;;;;;;;103.63;38.92;;;;;;;;;;6191077;23;20381;-80
2021/12/14 12:56:13;;;;;;;109.95;39.88;;;9.60;99.90;;;;;;6189645;23;20373;-80
2021/12/14 12:58:44;;;;;;;107.47;39.47;;;;;;;;;;6191294;23;20460;-80
2021/12/14 13:01:11;;;;;;;98.53;37.85;;;;;;;;;;6166243;23;20393;-79
2021/12/14 13:03:40;;;;;;;94.45;37.78;;;;;;;;;;6163094;23;20374;-81
2021/12/14 13:06:13;;;;;;;110.40;39.22;;;;;;;;;;6182155;23;20377;-81
2021/12/14 13:08:39;;;;;;;114.15;40.28;;;;;;;;;;6182756;23;20385;-80
2021/12/14 13:11:05;;;;;;;105.70;39.38;;;;;;;;;;6184266;23;20373;-80
2021/12/14 13:13:34;;;;;;;109.28;39.20;;;;;;;;;;6183862;23;20377;-80
2021/12/14 13:16:03;;;;;;;111.95;40.67;;;;;;;;;;6158412;23;20408;-81
2021/12/14 13:18:32;;;;;;;95.40;37.97;;;;;;;;;;6184112;23;20401;-80
2021/12/14 13:21:01;;;;;;;117.90;40.85;;;;;;;;;;6183365;23;20405;-80
2021/12/14 13:23:39;;;;;;;103.88;39.38;;;;;;;;;;6161711;23;20373;-80
2021/12/14 13:26:38;;;;;;;101.85;38.28;;;;;;;;;;6185194;23;20377;-80
2021/12/14 13:29:15;;;;;;;93.10;37.28;;;;;;;;;;6121447;23;20827;-80
2021/12/14 13:31:41;;;;;;;94.70;36.45;;;;;;;;;;6162413;23;20384;-80
2021/12/14 13:34:09;;;;;;;90.47;36.53;;;;;;;;;;6189070;23;20393;-80
2021/12/14 13:36:36;;;;;;;92.38;37.40;;;;;;;;;;6166816;23;20380;-80
2021/12/14 13:39:05;;;;;;;87.88;35.97;;;;;;;;;;6142144;23;20369;-80
2021/12/14 13:41:47;;;;;;;88.38;34.92;;;;;;;;;;6181910;23;20401;-80
2021/12/14 13:44:14;;;;;;;86.40;34.53;;;;;;;;;;6186430;23;20389;-79
2021/12/14 13:46:40;;;;;;;89.50;34.13;;;;;;;;;;6185531;23;20365;-81
2021/12/14 13:49:06;;;;;;;91.45;36.20;;;;;;;;;;6187917;23;20373;-81
2021/12/14 13:51:32;;;;;;;97.35;35.80;;;;;;;;;;6184757;23;20380;-81
2021/12/14 13:53:58;;;;;;;194.05;42.13;;;;;;;;;;6185600;23;20408;-81
2021/12/14 13:56:30;;;;;;;99.68;35.38;;;;;;;;;;6158385;23;20377;-80
2021/12/14 13:58:59;;;;;;;282.98;47.60;;;;;;;;;;6184053;23;20939;-80
2021/12/14 14:01:28;;;;;;;96.85;36.13;;;;;;;;;;6162841;23;20398;-81
2021/12/14 14:03:57;;;;;;;299.83;49.47;;;;;;;;;;6185269;23;20369;-81
2021/12/14 14:06:25;;;;;;;96.43;34.65;;;;;;;;;;6188276;23;20385;-80
2021/12/14 14:08:54;;;;;;;83.85;34.17;;;;;;;;;;6162879;23;20377;-80
2021/12/14 14:11:22;;;;;;;102.20;36.42;;;;;;;;;;6192358;23;20569;-81
2021/12/14 14:13:49;;;;;;;92.75;34.97;;;;;;;;;;6191680;23;20392;-82
2021/12/14 14:16:15;;;;;;;95.72;35.30;;;;;;;;;;6167330;23;20397;-81
2021/12/14 14:18:47;;;;;;;69.40;30.33;;;;;;;;;;6166499;23;20397;-81
2021/12/14 14:21:18;;;;;;;82.47;31.77;;;;;;;;;;6191941;23;20427;-82
2021/12/14 14:23:45;;;;;;;86.50;31.60;;;;;;;;;;6192562;23;20392;-82
2021/12/14 14:26:33;;;;;;;62.97;27.73;;;;;;;;;;6166508;23;20381;-81
2021/12/14 14:29:19;;;;;;;57.88;25.77;;;;;;;;;;6155790;23;20856;-81
2021/12/14 14:31:48;;;;;;;73.88;27.38;;;;;;;;;;6188024;23;20395;-80
2021/12/14 14:34:30;;;;;;;172.93;35.42;;;;;;;;;;6184528;23;20381;-81
2021/12/14 14:37:07;;;;;;;57.38;25.70;;;;;;;;;;6183724;23;20400;-81
2021/12/14 14:39:41;;;;;;;52.00;25.13;;;;;;;;;;6186429;23;20369;-82
2021/12/14 14:42:14;;;;;;;55.45;25.45;;;;;;;;;;6163520;23;20392;-82
2021/12/14 14:44:40;;;;;;;61.30;25.48;;;;;;;;;;6167362;23;20373;-81
2021/12/14 14:47:27;;;;;;;54.80;25.90;;;;;;;;;;6189959;23;20700;-82
2021/12/14 14:49:55;;;;;;;57.20;25.73;;;;;;;;;;6167045;23;20381;-82
2021/12/14 14:52:39;;;;;;;60.92;27.23;;;9.70;99.90;;;;;;6165417;23;20408;-82
2021/12/14 14:55:08;;;;;;;57.43;27.30;;;;;;;;;;6166466;23;20482;-81
2021/12/14 14:57:36;;;;;;;52.25;25.27;;;;;;;;;;6192685;23;20382;-81
2021/12/14 15:00:07;;;;;;;55.03;26.77;;;;;;;;;;6189174;23;20448;-81
2021/12/14 15:02:41;;;;;;;54.92;26.17;;;;;;;;;;6193319;23;20473;-81